Time;durP1;ratioP1;P1;durP2;ratioP2;P2;SDS_P1;SDS_P2;PMS_P1;PMS_P2;Temp;Humidity;BMP_temperature;BMP_pressure;BME280_temperature;BME280_humidity;BME280_pressure;Samples;Min_cycle;Max_cycle;Signal;HPM_P1;HPM_P2
2021/11/15 00:01:45;;;;;;;61.33;25.53;;;6.90;99.90;;;;;;5035973;28;20456;-84
2021/11/15 00:04:16;;;;;;;57.70;24.90;;;6.90;99.90;;;;;;5036264;28;20183;-83
2021/11/15 00:06:42;;;;;;;58.23;26.63;;;6.90;99.90;;;;;;5036194;28;20410;-83
2021/11/15 00:09:08;;;;;;;60.97;26.80;;;6.90;99.90;;;;;;5035946;28;20418;-83
2021/11/15 00:11:35;;;;;;;54.40;29.67;;;6.90;99.90;;;;;;5034725;28;20459;-83
2021/11/15 00:14:06;;;;;;;62.87;25.53;;;6.90;99.90;;;;;;5035999;28;20421;-83
2021/11/15 00:16:33;;;;;;;58.50;27.33;;;6.90;99.90;;;;;;5036085;28;20440;-83
2021/11/15 00:18:59;;;;;;;68.00;28.13;;;6.90;99.90;;;;;;5036011;28;20845;-83
2021/11/15 00:21:25;;;;;;;59.23;27.13;;;6.90;99.90;;;;;;5035938;28;20485;-83
2021/11/15 00:23:51;;;;;;;55.67;25.10;;;7.00;99.90;;;;;;5035546;28;20410;-83
2021/11/15 00:26:19;;;;;;;54.93;24.00;;;6.90;99.90;;;;;;5035861;28;20459;-83
2021/11/15 00:28:45;;;;;;;61.43;25.10;;;6.90;99.90;;;;;;5035847;28;20420;-83
2021/11/15 00:31:11;;;;;;;58.27;25.47;;;6.90;99.90;;;;;;5035762;28;20889;-83
2021/11/15 00:33:36;;;;;;;61.17;26.50;;;6.90;99.90;;;;;;5035785;28;20182;-83
2021/11/15 00:36:03;;;;;;;54.63;26.20;;;7.00;99.90;;;;;;5035673;28;20410;-83
2021/11/15 00:38:29;;;;;;;58.40;27.10;;;6.90;99.90;;;;;;5035040;28;20175;-82
2021/11/15 00:40:54;;;;;;;52.50;25.60;;;6.90;99.90;;;;;;5035610;28;20456;-82
2021/11/15 00:43:20;;;;;;;57.30;27.80;;;6.90;99.90;;;;;;5034326;28;20186;-82
2021/11/15 00:45:46;;;;;;;62.50;27.53;;;6.90;99.90;;;;;;5035518;28;20184;-83
2021/11/15 00:48:11;;;;;;;56.97;25.33;;;7.00;99.90;;;;;;5035521;28;20431;-82
2021/11/15 00:50:38;;;;;;;53.90;27.00;;;6.90;99.90;;;;;;5035528;28;20172;-83
2021/11/15 00:53:04;;;;;;;60.87;26.70;;;6.90;99.90;;;;;;5035325;28;20210;-83
2021/11/15 00:55:32;;;;;;;65.03;26.80;;;7.00;99.90;;;;;;5034729;28;20437;-82
2021/11/15 00:57:58;;;;;;;58.27;26.43;;;6.90;99.90;;;;;;5034292;28;20419;-82
2021/11/15 01:00:26;;;;;;;69.37;27.00;;;6.90;99.90;;;;;;5035251;28;20426;-83
2021/11/15 01:02:55;;;;;;;57.17;24.80;;;6.90;99.90;;;;;;5030505;28;20529;-83
2021/11/15 01:05:22;;;;;;;58.23;26.60;;;6.90;99.90;;;;;;5015300;28;20453;-83
2021/11/15 01:07:48;;;;;;;68.10;27.80;;;7.00;99.90;;;;;;5014019;28;20451;-83
2021/11/15 01:10:16;;;;;;;70.40;29.63;;;7.00;99.90;;;;;;5013742;28;20569;-83
2021/11/15 01:12:43;;;;;;;65.60;28.10;;;6.90;99.90;;;;;;5015086;28;20266;-83
2021/11/15 01:15:12;;;;;;;64.67;27.73;;;7.00;99.90;;;;;;5015123;28;20811;-83
2021/11/15 01:17:38;;;;;;;67.93;29.33;;;7.00;99.90;;;;;;5015118;28;20474;-83
2021/11/15 01:20:07;;;;;;;58.93;27.10;;;6.90;99.90;;;;;;5015128;28;20420;-83
2021/11/15 01:22:34;;;;;;;64.83;27.90;;;7.00;99.90;;;;;;5014951;28;20419;-83
2021/11/15 01:24:59;;;;;;;59.87;26.47;;;6.90;99.90;;;;;;5014683;28;20817;-83
2021/11/15 01:27:25;;;;;;;58.30;28.10;;;6.90;99.90;;;;;;5014805;28;20422;-82
2021/11/15 01:29:51;;;;;;;72.30;30.17;;;6.90;99.90;;;;;;5014931;28;20174;-82
2021/11/15 01:32:18;;;;;;;60.90;26.20;;;6.90;99.90;;;;;;5014764;28;20669;-83
2021/11/15 01:34:44;;;;;;;60.97;28.20;;;7.00;99.90;;;;;;5013526;28;20180;-83
2021/11/15 01:37:09;;;;;;;59.83;26.60;;;7.00;99.90;;;;;;5014816;28;20420;-83
2021/11/15 01:39:35;;;;;;;56.10;28.50;;;6.90;99.90;;;;;;5013082;28;20763;-83
2021/11/15 01:42:03;;;;;;;59.53;24.67;;;7.00;99.90;;;;;;5014726;28;20535;-82
2021/11/15 01:44:29;;;;;;;67.13;29.27;;;7.00;99.90;;;;;;5014726;28;20508;-84
2021/11/15 01:46:54;;;;;;;62.87;29.53;;;7.00;99.90;;;;;;5014687;28;20416;-82
2021/11/15 01:49:20;;;;;;;58.53;28.20;;;6.90;99.90;;;;;;5013470;28;20502;-83
2021/11/15 01:51:46;;;;;;;60.47;26.73;;;6.90;99.90;;;;;;5014533;28;20235;-83
2021/11/15 01:54:12;;;;;;;59.83;28.37;;;6.90;99.90;;;;;;5014190;28;20175;-83
2021/11/15 01:56:38;;;;;;;65.07;27.70;;;7.00;99.90;;;;;;5014441;28;20179;-83
2021/11/15 01:59:05;;;;;;;71.53;26.10;;;7.00;99.90;;;;;;5014448;28;20758;-83
2021/11/15 02:01:30;;;;;;;57.23;28.57;;;7.00;99.90;;;;;;5014164;28;20232;-83
2021/11/15 02:03:57;;;;;;;59.93;25.77;;;6.90;99.90;;;;;;5014343;28;20474;-83
2021/11/15 02:06:23;;;;;;;55.27;25.83;;;6.90;99.90;;;;;;5014242;28;20207;-83
2021/11/15 02:08:49;;;;;;;66.57;31.57;;;7.00;99.90;;;;;;5013384;28;20415;-83
2021/11/15 02:11:15;;;;;;;60.17;26.80;;;6.90;99.90;;;;;;5014133;28;20461;-83
2021/11/15 02:13:41;;;;;;;57.17;26.77;;;6.90;99.90;;;;;;5014060;28;20458;-84
2021/11/15 02:16:07;;;;;;;57.70;27.20;;;6.90;99.90;;;;;;5014182;28;20199;-84
2021/11/15 02:18:33;;;;;;;57.57;25.17;;;7.00;99.90;;;;;;5013994;28;20912;-83
2021/11/15 02:21:07;;;;;;;54.60;23.90;;;7.00;99.90;;;;;;5014024;28;20452;-83
2021/11/15 02:23:37;;;;;;;57.53;25.40;;;7.00;99.90;;;;;;5013613;28;20418;-83
2021/11/15 02:26:05;;;;;;;65.37;27.87;;;7.00;99.90;;;;;;5012703;28;20422;-83
2021/11/15 02:28:35;;;;;;;61.27;25.30;;;7.00;99.90;;;;;;5012554;28;20427;-83
2021/11/15 02:31:02;;;;;;;65.73;29.17;;;6.90;99.90;;;;;;5013862;28;20490;-83
2021/11/15 02:33:30;;;;;;;53.57;27.77;;;6.90;99.90;;;;;;5013646;28;20505;-83
2021/11/15 02:35:57;;;;;;;52.53;26.03;;;6.90;99.90;;;;;;5012423;28;20774;-83
2021/11/15 02:38:26;;;;;;;59.27;26.70;;;6.90;99.90;;;;;;5013298;28;20484;-83
2021/11/15 02:40:51;;;;;;;70.17;27.40;;;6.90;99.90;;;;;;5013589;28;20423;-83
2021/11/15 02:43:17;;;;;;;59.97;26.73;;;6.90;99.90;;;;;;5013605;28;20849;-83
2021/11/15 02:45:43;;;;;;;56.93;27.43;;;6.90;99.90;;;;;;5013566;28;20539;-84
2021/11/15 02:48:09;;;;;;;57.07;25.27;;;6.90;99.90;;;;;;5013581;28;20183;-84
2021/11/15 02:50:35;;;;;;;59.67;26.40;;;7.00;99.90;;;;;;5013571;28;20426;-83
2021/11/15 02:53:05;;;;;;;53.00;27.27;;;6.90;99.90;;;;;;5012939;28;20471;-83
2021/11/15 02:55:30;;;;;;;50.93;26.60;;;6.90;99.90;;;;;;5013400;28;20176;-84
2021/11/15 02:57:58;;;;;;;58.33;24.77;;;6.90;99.90;;;;;;5012183;28;20431;-84
2021/11/15 03:00:35;;;;;;;57.60;26.67;;;6.80;99.90;;;;;;5013449;28;20408;-84
2021/11/15 03:03:02;;;;;;;54.03;26.40;;;6.80;99.90;;;;;;5013305;28;20822;-84
2021/11/15 03:05:31;;;;;;;49.20;22.60;;;6.80;99.90;;;;;;5013338;28;20776;-84
2021/11/15 03:07:58;;;;;;;57.80;25.03;;;6.80;99.90;;;;;;5013299;28;20406;-82
2021/11/15 03:10:24;;;;;;;49.90;24.17;;;6.80;99.90;;;;;;5013307;28;20454;-84
2021/11/15 03:12:57;;;;;;;55.97;23.57;;;6.80;99.90;;;;;;5013204;28;20857;-84
2021/11/15 03:15:27;;;;;;;43.70;22.47;;;6.80;99.90;;;;;;5013243;28;20426;-84
2021/11/15 03:18:02;;;;;;;51.03;23.60;;;6.70;99.90;;;;;;5013083;28;20437;-83
2021/11/15 03:20:31;;;;;;;49.07;23.27;;;6.70;99.90;;;;;;5011094;28;20425;-83
2021/11/15 03:22:57;;;;;;;52.00;26.40;;;6.80;99.90;;;;;;5012735;28;20925;-83
2021/11/15 03:25:27;;;;;;;52.43;25.63;;;6.70;99.90;;;;;;5011819;28;20423;-83
2021/11/15 03:27:54;;;;;;;52.33;25.03;;;6.70;99.90;;;;;;5011893;28;20203;-83
2021/11/15 03:30:20;;;;;;;50.43;24.47;;;6.70;99.90;;;;;;5011692;28;21131;-83
2021/11/15 03:32:47;;;;;;;58.20;24.03;;;6.70;99.90;;;;;;5012743;28;20466;-83
2021/11/15 03:35:14;;;;;;;45.70;23.23;;;6.70;99.90;;;;;;5012848;28;20443;-82
2021/11/15 03:37:40;;;;;;;46.20;22.40;;;6.70;99.90;;;;;;5012909;28;20433;-82
2021/11/15 03:40:13;;;;;;;49.37;25.50;;;6.60;99.90;;;;;;5012669;28;20465;-83
2021/11/15 03:42:40;;;;;;;51.33;26.37;;;6.60;99.90;;;;;;5012987;28;20427;-83
2021/11/15 03:45:06;;;;;;;55.57;26.83;;;6.60;99.90;;;;;;5012943;28;20786;-84
2021/11/15 03:47:32;;;;;;;56.07;25.70;;;6.60;99.90;;;;;;5012853;28;20465;-83
2021/11/15 03:49:58;;;;;;;50.47;24.13;;;6.60;99.90;;;;;;5012879;28;20863;-83
2021/11/15 03:52:24;;;;;;;49.87;25.07;;;6.60;99.90;;;;;;5012880;28;20716;-83
2021/11/15 03:54:50;;;;;;;55.70;27.87;;;6.60;99.90;;;;;;5012464;28;20770;-82
2021/11/15 03:57:16;;;;;;;51.47;27.00;;;6.50;99.90;;;;;;5012882;28;20417;-82
2021/11/15 03:59:42;;;;;;;53.37;22.93;;;6.50;99.90;;;;;;5012825;28;20804;-82
2021/11/15 04:02:08;;;;;;;52.70;25.27;;;6.60;99.90;;;;;;5011356;28;20224;-82
2021/11/15 04:04:49;;;;;;;56.47;25.80;;;6.50;99.90;;;;;;5012812;28;20418;-81
2021/11/15 04:07:25;;;;;;;54.23;26.67;;;6.50;99.90;;;;;;5012719;28;20560;-82
2021/11/15 04:09:50;;;;;;;56.97;27.87;;;6.50;99.90;;;;;;5011068;28;20422;-83
2021/11/15 04:12:16;;;;;;;54.40;27.57;;;6.40;99.90;;;;;;5012533;28;20458;-82
2021/11/15 04:14:42;;;;;;;55.30;24.87;;;6.40;99.90;;;;;;5012750;28;20647;-82
2021/11/15 04:17:07;;;;;;;54.83;24.07;;;6.40;99.90;;;;;;5012684;28;20217;-82
2021/11/15 04:19:33;;;;;;;55.10;24.80;;;6.40;99.90;;;;;;5012648;28;20202;-82
2021/11/15 04:22:02;;;;;;;52.97;24.97;;;6.40;99.90;;;;;;5012561;28;20179;-82
2021/11/15 04:24:31;;;;;;;52.93;23.80;;;6.40;99.90;;;;;;5012210;28;20536;-83
2021/11/15 04:26:56;;;;;;;52.03;24.63;;;6.40;99.90;;;;;;5012604;28;20468;-83
2021/11/15 04:29:22;;;;;;;43.47;21.23;;;6.40;99.90;;;;;;5011404;28;20461;-83
2021/11/15 04:31:48;;;;;;;55.63;25.07;;;6.40;99.90;;;;;;5014612;28;20937;-83
2021/11/15 04:34:13;;;;;;;57.47;23.90;;;6.30;99.90;;;;;;5016085;28;20648;-83
2021/11/15 04:36:40;;;;;;;49.70;25.63;;;6.30;99.90;;;;;;5015954;28;20180;-83
2021/11/15 04:39:06;;;;;;;52.17;25.67;;;6.30;99.90;;;;;;5014135;28;20543;-82
2021/11/15 04:41:32;;;;;;;50.90;23.50;;;6.30;99.90;;;;;;5014591;28;20830;-83
2021/11/15 04:43:57;;;;;;;52.40;24.87;;;6.30;99.90;;;;;;5015824;28;20422;-83
2021/11/15 04:46:23;;;;;;;50.17;22.50;;;6.30;99.90;;;;;;4997699;28;20183;-84
2021/11/15 04:48:49;;;;;;;47.67;22.97;;;6.30;99.90;;;;;;5015775;28;20180;-83
2021/11/15 04:51:15;;;;;;;51.07;23.50;;;6.30;99.90;;;;;;5015696;28;20163;-83
2021/11/15 04:53:40;;;;;;;52.97;24.40;;;6.30;99.90;;;;;;5015278;28;20480;-83
2021/11/15 04:56:07;;;;;;;47.57;22.80;;;6.30;99.90;;;;;;5015574;28;20174;-83
2021/11/15 04:58:34;;;;;;;54.97;27.60;;;6.30;99.90;;;;;;5015536;28;20250;-84
2021/11/15 05:01:00;;;;;;;50.33;26.07;;;6.30;99.90;;;;;;5015333;28;20513;-83
2021/11/15 05:03:26;;;;;;;50.57;23.20;;;6.20;99.90;;;;;;5015333;28;20494;-83
2021/11/15 05:05:51;;;;;;;52.37;25.53;;;6.30;99.90;;;;;;5014215;28;20178;-83
2021/11/15 05:08:17;;;;;;;50.20;24.20;;;6.20;99.90;;;;;;5015157;28;20163;-83
2021/11/15 05:10:42;;;;;;;47.50;24.73;;;6.30;99.90;;;;;;5015354;28;20209;-83
2021/11/15 05:13:08;;;;;;;48.33;23.80;;;6.20;99.90;;;;;;5015259;28;20273;-83
2021/11/15 05:15:34;;;;;;;48.00;23.97;;;6.20;99.90;;;;;;5015335;28;20171;-83
2021/11/15 05:18:00;;;;;;;43.30;22.60;;;6.20;99.90;;;;;;5015209;28;20195;-83
2021/11/15 05:20:25;;;;;;;47.23;24.53;;;6.20;99.90;;;;;;5015144;28;20172;-83
2021/11/15 05:22:51;;;;;;;50.13;23.77;;;6.20;99.90;;;;;;5013564;28;20218;-84
2021/11/15 05:25:18;;;;;;;37.07;22.00;;;6.30;99.90;;;;;;5014974;28;20176;-84
2021/11/15 05:27:44;;;;;;;49.00;22.50;;;6.20;99.90;;;;;;5015056;28;20236;-84
2021/11/15 05:30:13;;;;;;;47.37;23.00;;;6.30;99.90;;;;;;5015058;28;20407;-84
2021/11/15 05:32:39;;;;;;;49.47;23.57;;;6.30;99.90;;;;;;5014860;28;20470;-83
2021/11/15 05:35:06;;;;;;;40.53;21.37;;;6.30;99.90;;;;;;5013736;28;20473;-84
2021/11/15 05:37:31;;;;;;;42.83;21.47;;;6.20;99.90;;;;;;5014513;28;20421;-83
2021/11/15 05:39:57;;;;;;;44.50;22.57;;;6.20;99.90;;;;;;5014676;28;20412;-84
2021/11/15 05:42:23;;;;;;;41.10;20.50;;;6.30;99.90;;;;;;5013822;28;20585;-83
2021/11/15 05:44:49;;;;;;;44.80;22.73;;;6.30;99.90;;;;;;5014696;28;20225;-83
2021/11/15 05:47:14;;;;;;;40.13;20.60;;;6.30;99.90;;;;;;5014752;28;20172;-83
2021/11/15 05:49:40;;;;;;;45.27;23.77;;;6.30;99.90;;;;;;5014642;28;20214;-83
2021/11/15 05:52:06;;;;;;;48.53;23.97;;;6.30;99.90;;;;;;5014413;28;20246;-83
2021/11/15 05:54:32;;;;;;;42.17;21.47;;;6.30;99.90;;;;;;5014059;28;20222;-84
2021/11/15 05:56:58;;;;;;;45.57;23.23;;;6.30;99.90;;;;;;5014450;28;20434;-84
2021/11/15 05:59:25;;;;;;;46.87;22.30;;;6.30;99.90;;;;;;5014352;28;20168;-84
2021/11/15 06:01:51;;;;;;;47.07;22.43;;;6.30;99.90;;;;;;5014239;28;20454;-83
2021/11/15 06:04:16;;;;;;;48.20;23.67;;;6.30;99.90;;;;;;5013766;28;20491;-83
2021/11/15 06:06:44;;;;;;;40.77;22.60;;;6.40;99.90;;;;;;5012932;28;20571;-83
2021/11/15 06:09:11;;;;;;;51.00;23.27;;;6.30;99.90;;;;;;5013876;28;20167;-83
2021/11/15 06:11:36;;;;;;;52.00;22.27;;;6.30;99.90;;;;;;5014117;28;20414;-83
2021/11/15 06:14:02;;;;;;;46.87;22.20;;;6.30;99.90;;;;;;5013217;28;20752;-83
2021/11/15 06:16:30;;;;;;;42.57;21.00;;;6.30;99.90;;;;;;5013953;28;20164;-83
2021/11/15 06:19:04;;;;;;;36.53;20.23;;;6.30;99.90;;;;;;5013465;28;20179;-83
2021/11/15 06:21:30;;;;;;;41.03;21.77;;;6.40;99.90;;;;;;5012151;28;20955;-83
2021/11/15 06:23:56;;;;;;;42.73;21.27;;;6.40;99.90;;;;;;5013373;28;20420;-83
2021/11/15 06:26:24;;;;;;;43.73;21.63;;;6.30;99.90;;;;;;5012736;28;20175;-83
2021/11/15 06:28:50;;;;;;;37.63;19.47;;;6.30;99.90;;;;;;5012688;28;20181;-83
2021/11/15 06:31:18;;;;;;;38.90;21.30;;;6.30;99.90;;;;;;5013882;28;20495;-83
2021/11/15 06:33:49;;;;;;;39.67;22.23;;;6.30;99.90;;;;;;5013772;28;20480;-83
2021/11/15 06:36:24;;;;;;;42.03;20.90;;;6.40;99.90;;;;;;5013836;28;20443;-83
2021/11/15 06:38:53;;;;;;;44.57;21.03;;;6.40;99.90;;;;;;5013413;28;20415;-84
2021/11/15 06:41:22;;;;;;;38.47;22.00;;;6.40;99.90;;;;;;5013615;28;20499;-83
2021/11/15 06:43:48;;;;;;;46.03;21.67;;;6.40;99.90;;;;;;5012398;28;20416;-84
2021/11/15 06:46:16;;;;;;;43.30;21.77;;;6.40;99.90;;;;;;5013643;28;20415;-83
2021/11/15 06:48:43;;;;;;;39.10;21.03;;;6.40;99.90;;;;;;5013485;28;20780;-83
2021/11/15 06:51:13;;;;;;;42.53;21.90;;;6.40;99.90;;;;;;5013440;28;20415;-83
2021/11/15 06:53:40;;;;;;;42.30;22.10;;;6.50;99.90;;;;;;5013125;28;20481;-83
2021/11/15 06:56:07;;;;;;;43.10;21.80;;;6.50;99.90;;;;;;5013369;28;20422;-83
2021/11/15 06:58:33;;;;;;;40.30;19.80;;;6.50;99.90;;;;;;5012104;28;20513;-83
2021/11/15 07:00:59;;;;;;;42.83;22.17;;;6.50;99.90;;;;;;5013392;28;20445;-83
2021/11/15 07:03:25;;;;;;;39.47;21.03;;;6.50;99.90;;;;;;5012778;28;20462;-83
2021/11/15 07:05:51;;;;;;;36.47;20.10;;;6.50;99.90;;;;;;5012025;28;21338;-82
2021/11/15 07:08:17;;;;;;;38.43;19.80;;;6.50;99.90;;;;;;5011596;28;20183;-84
2021/11/15 07:10:43;;;;;;;40.20;21.87;;;6.60;99.90;;;;;;5013279;28;20176;-83
2021/11/15 07:13:09;;;;;;;37.67;20.67;;;6.50;99.90;;;;;;5013060;28;20969;-83
2021/11/15 07:15:35;;;;;;;42.23;22.43;;;6.50;99.90;;;;;;5013073;28;20498;-83
2021/11/15 07:18:02;;;;;;;41.27;21.33;;;6.60;99.90;;;;;;5013120;28;20842;-83
2021/11/15 07:20:28;;;;;;;39.57;20.53;;;6.60;99.90;;;;;;5013121;28;20191;-83
2021/11/15 07:22:53;;;;;;;34.73;18.67;;;6.60;99.90;;;;;;5012692;28;20912;-83
2021/11/15 07:25:20;;;;;;;38.17;21.37;;;6.60;99.90;;;;;;5011841;28;20231;-83
2021/11/15 07:27:48;;;;;;;35.80;18.70;;;6.60;99.90;;;;;;5013090;28;20207;-83
2021/11/15 07:30:15;;;;;;;40.10;19.70;;;6.60;99.90;;;;;;5012953;28;20418;-83
2021/11/15 07:32:40;;;;;;;42.07;21.00;;;6.70;99.90;;;;;;5013008;28;20467;-87
2021/11/15 07:35:07;;;;;;;40.10;22.93;;;6.70;99.90;;;;;;5012932;28;20477;-83
2021/11/15 07:37:34;;;;;;;36.00;20.53;;;6.70;99.90;;;;;;5012707;28;20192;-83
2021/11/15 07:39:59;;;;;;;43.60;20.10;;;6.70;99.90;;;;;;5013681;28;20415;-90
2021/11/15 07:42:25;;;;;;;41.10;21.73;;;6.70;99.90;;;;;;5028518;28;20426;-88
2021/11/15 07:44:51;;;;;;;38.90;21.10;;;6.80;99.90;;;;;;5031241;28;20187;-88
2021/11/15 07:47:17;;;;;;;37.27;21.73;;;6.80;99.90;;;;;;5032842;28;20183;-87
2021/11/15 07:49:46;;;;;;;38.40;20.47;;;6.80;99.90;;;;;;5030946;28;20329;-87
2021/11/15 07:52:12;;;;;;;41.90;20.77;;;6.80;99.90;;;;;;5032281;28;20465;-89
2021/11/15 07:54:38;;;;;;;41.17;20.50;;;6.80;99.90;;;;;;5032028;28;20462;-87
2021/11/15 07:57:06;;;;;;;31.30;17.87;;;6.80;99.90;;;;;;5023110;28;20451;-88
2021/11/15 07:59:32;;;;;;;37.00;20.53;;;6.80;99.90;;;;;;5013500;28;20417;-88
2021/11/15 08:01:58;;;;;;;43.53;20.87;;;6.80;99.90;;;;;;5011938;28;20465;-88
2021/11/15 08:04:23;;;;;;;36.70;19.30;;;6.80;99.90;;;;;;5013747;28;20426;-89
2021/11/15 08:06:49;;;;;;;36.10;19.27;;;6.80;99.90;;;;;;5015753;28;20262;-89
2021/11/15 08:09:15;;;;;;;30.77;19.93;;;6.80;99.90;;;;;;5017549;28;20172;-88
2021/11/15 08:11:44;;;;;;;35.97;19.93;;;6.80;99.90;;;;;;5016929;28;20187;-88
2021/11/15 08:14:11;;;;;;;40.23;20.60;;;6.90;99.90;;;;;;5017580;28;20274;-89
2021/11/15 08:16:37;;;;;;;38.30;19.70;;;6.80;99.90;;;;;;5016928;28;20773;-89
2021/11/15 08:19:03;;;;;;;34.43;23.20;;;6.80;99.90;;;;;;5018179;28;20419;-89
2021/11/15 08:21:29;;;;;;;30.13;17.07;;;6.80;99.90;;;;;;5017156;28;20187;-89
2021/11/15 08:23:55;;;;;;;37.43;20.07;;;6.80;99.90;;;;;;5018441;28;20180;-89
2021/11/15 08:26:49;;;;;;;35.67;20.27;;;6.80;99.90;;;;;;5019415;28;20508;-89
2021/11/15 08:29:15;;;;;;;38.90;19.43;;;6.90;99.90;;;;;;5018973;28;20965;-90
2021/11/15 08:31:44;;;;;;;40.23;20.70;;;6.90;99.90;;;;;;5019054;28;20506;-87
2021/11/15 08:34:13;;;;;;;44.23;20.03;;;6.90;99.90;;;;;;5018457;28;20430;-89
2021/11/15 08:36:41;;;;;;;40.43;20.47;;;6.80;99.90;;;;;;5018051;28;20427;-89
2021/11/15 08:39:14;;;;;;;43.53;21.43;;;6.90;99.90;;;;;;5015597;28;20477;-89
2021/11/15 08:41:47;;;;;;;43.27;21.50;;;6.90;99.90;;;;;;5016405;28;20450;-88
2021/11/15 08:44:17;;;;;;;38.13;22.50;;;6.90;99.90;;;;;;5016720;28;20985;-89
2021/11/15 08:46:45;;;;;;;38.07;21.87;;;6.90;99.90;;;;;;5015457;28;20419;-88
2021/11/15 08:49:14;;;;;;;34.23;20.40;;;6.90;99.90;;;;;;5015395;28;20421;-88
2021/11/15 08:51:41;;;;;;;42.83;20.10;;;6.90;99.90;;;;;;5016433;28;20768;-88
2021/11/15 08:54:09;;;;;;;35.80;21.07;;;6.90;99.90;;;;;;5021861;28;20450;-88
2021/11/15 08:56:36;;;;;;;42.70;22.10;;;6.90;99.90;;;;;;5015472;28;20462;-89
2021/11/15 08:59:01;;;;;;;35.33;20.27;;;6.90;99.90;;;;;;5016426;28;20825;-89
2021/11/15 09:01:27;;;;;;;37.43;20.93;;;6.90;99.90;;;;;;5015505;28;20419;-89
2021/11/15 09:03:53;;;;;;;33.60;20.50;;;6.90;99.90;;;;;;5015387;28;20183;-89
2021/11/15 09:06:20;;;;;;;31.60;17.60;;;6.90;99.90;;;;;;5017232;28;20178;-89
2021/11/15 09:08:47;;;;;;;33.70;20.47;;;7.00;99.90;;;;;;5015039;28;20854;-88
2021/11/15 09:11:14;;;;;;;35.20;20.27;;;7.00;99.90;;;;;;5015619;28;20928;-88
2021/11/15 09:13:44;;;;;;;37.57;20.00;;;7.00;99.90;;;;;;5015178;28;20479;-88
2021/11/15 09:16:10;;;;;;;34.03;19.97;;;7.00;99.90;;;;;;5016734;28;20422;-89
2021/11/15 09:18:36;;;;;;;33.73;17.43;;;7.00;99.90;;;;;;5015122;28;20427;-88
2021/11/15 09:21:06;;;;;;;38.07;21.73;;;7.10;99.90;;;;;;5016341;28;20411;-88
2021/11/15 09:23:34;;;;;;;37.77;20.53;;;7.10;99.90;;;;;;5014990;28;20172;-88
2021/11/15 09:26:01;;;;;;;36.00;19.80;;;7.10;99.90;;;;;;5016811;28;20407;-88
2021/11/15 09:28:26;;;;;;;37.73;20.40;;;7.10;99.90;;;;;;5015604;28;20430;-88
2021/11/15 09:30:52;;;;;;;32.83;19.97;;;7.10;99.90;;;;;;5015862;28;20429;-88
2021/11/15 09:33:18;;;;;;;34.97;19.97;;;7.10;99.90;;;;;;5015769;28;20614;-89
2021/11/15 09:35:49;;;;;;;39.13;19.43;;;7.10;99.90;;;;;;5014925;28;20182;-86
2021/11/15 09:38:20;;;;;;;39.30;21.37;;;7.20;99.90;;;;;;5015554;28;20588;-90
2021/11/15 09:40:56;;;;;;;34.80;17.87;;;7.10;99.90;;;;;;5014710;28;20739;-86
2021/11/15 09:43:22;;;;;;;31.87;18.43;;;7.10;99.90;;;;;;5016077;28;20868;-88
2021/11/15 09:45:51;;;;;;;30.70;17.83;;;7.20;99.90;;;;;;5014939;28;20911;-89
2021/11/15 09:48:18;;;;;;;34.53;20.37;;;7.20;99.90;;;;;;5016076;28;20419;-89
2021/11/15 09:50:44;;;;;;;36.10;19.83;;;7.20;99.90;;;;;;5015826;28;20433;-86
2021/11/15 09:53:10;;;;;;;30.03;18.17;;;7.20;99.90;;;;;;5015211;28;20474;-84
2021/11/15 09:55:36;;;;;;;36.40;19.50;;;7.20;99.90;;;;;;5014630;28;20223;-89
2021/11/15 09:58:03;;;;;;;31.03;19.83;;;7.20;99.90;;;;;;5015692;28;20427;-89
2021/11/15 10:00:33;;;;;;;30.93;18.70;;;7.30;99.90;;;;;;5014901;28;20414;-88
2021/11/15 10:03:01;;;;;;;36.30;20.60;;;7.30;99.90;;;;;;5015433;28;20470;-89
2021/11/15 10:05:28;;;;;;;34.07;19.17;;;7.30;99.90;;;;;;5015887;28;20419;-87
2021/11/15 10:07:56;;;;;;;35.50;19.50;;;7.30;99.90;;;;;;5014232;28;20944;-88
2021/11/15 10:10:24;;;;;;;33.53;18.97;;;7.30;99.90;;;;;;5015725;28;20443;-89
2021/11/15 10:13:08;;;;;;;30.20;19.47;;;7.30;99.90;;;;;;5014514;28;20478;-88
2021/11/15 10:15:47;;;;;;;35.13;19.53;;;7.30;99.90;;;;;;5015603;28;20425;-89
2021/11/15 10:18:18;;;;;;;32.83;19.80;;;7.30;99.90;;;;;;5014226;28;20498;-88
2021/11/15 10:20:47;;;;;;;34.17;18.53;;;7.30;99.90;;;;;;5015440;28;20426;-87
2021/11/15 10:23:44;;;;;;;33.60;19.20;;;7.30;99.90;;;;;;5015245;28;20403;-89
2021/11/15 10:26:14;;;;;;;31.30;20.00;;;7.30;99.90;;;;;;5014546;28;20408;-90
2021/11/15 10:28:40;;;;;;;30.57;19.37;;;7.30;99.90;;;;;;5015197;28;20407;-88
2021/11/15 10:31:24;;;;;;;31.67;19.97;;;7.30;99.90;;;;;;5013949;28;20782;-87
2021/11/15 10:33:50;;;;;;;39.03;20.10;;;7.30;99.90;;;;;;5015425;28;20297;-89
2021/11/15 10:36:15;;;;;;;34.50;18.87;;;7.30;99.90;;;;;;5015001;28;20407;-89
2021/11/15 10:38:51;;;;;;;33.70;18.87;;;7.30;99.90;;;;;;5014419;28;20611;-88
2021/11/15 10:41:21;;;;;;;33.80;19.13;;;7.30;99.90;;;;;;5015585;28;20508;-89
2021/11/15 10:43:56;;;;;;;35.60;20.67;;;7.30;99.90;;;;;;5015787;28;20453;-86
2021/11/15 10:46:34;;;;;;;30.90;17.97;;;7.20;99.90;;;;;;5015445;28;20812;-86
2021/11/15 10:49:02;;;;;;;33.23;18.40;;;7.30;99.90;;;;;;5023463;28;20451;-88
2021/11/15 10:51:48;;;;;;;33.27;20.70;;;7.20;99.90;;;;;;5032778;28;20425;-87
2021/11/15 10:54:40;;;;;;;30.70;18.33;;;7.30;99.90;;;;;;5028519;28;20410;-87
2021/11/15 10:57:29;;;;;;;30.40;16.63;;;7.30;99.90;;;;;;5027815;28;20407;-88
2021/11/15 11:00:04;;;;;;;30.63;18.13;;;7.30;99.90;;;;;;5023885;28;20411;-85
2021/11/15 11:02:30;;;;;;;34.87;19.30;;;7.30;99.90;;;;;;5015508;28;20486;-85
2021/11/15 11:05:23;;;;;;;24.60;15.67;;;7.30;99.90;;;;;;5017989;28;20447;-86
2021/11/15 11:08:09;;;;;;;33.13;16.97;;;7.40;99.90;;;;;;5020988;28;20515;-86
2021/11/15 11:10:42;;;;;;;32.40;20.07;;;7.30;99.90;;;;;;5024798;28;20431;-86
2021/11/15 11:13:09;;;;;;;27.50;17.40;;;7.30;99.90;;;;;;5019135;28;20516;-85
2021/11/15 11:15:52;;;;;;;32.63;20.13;;;7.30;99.90;;;;;;5021709;28;20412;-85
2021/11/15 11:26:41;;;;;;;35.40;18.77;;;7.30;99.90;;;;;;5023167;28;20422;-86
2021/11/15 11:29:11;;;;;;;31.33;18.17;;;7.30;99.90;;;;;;5029774;28;20428;-84
2021/11/15 11:31:43;;;;;;;31.17;16.10;;;7.30;99.90;;;;;;5020130;28;20506;-85
2021/11/15 11:34:10;;;;;;;34.73;19.20;;;7.40;99.90;;;;;;5017317;28;20876;-85
2021/11/15 11:36:37;;;;;;;40.30;22.07;;;7.30;99.90;;;;;;5017507;28;20426;-86
2021/11/15 11:39:08;;;;;;;35.53;17.07;;;7.40;99.90;;;;;;5015427;28;20427;-85
2021/11/15 11:41:43;;;;;;;31.43;18.60;;;7.30;99.90;;;;;;5017240;28;20542;-85
2021/11/15 11:44:11;;;;;;;30.03;17.10;;;7.30;99.90;;;;;;5006374;28;20426;-85
2021/11/15 11:46:39;;;;;;;31.80;17.30;;;7.40;99.90;;;;;;5027210;28;20419;-85
2021/11/15 11:49:07;;;;;;;30.63;17.17;;;7.40;99.90;;;;;;5022981;28;20467;-85
2021/11/15 11:51:40;;;;;;;27.60;17.40;;;7.30;99.90;;;;;;5023962;28;20426;-85
2021/11/15 11:54:17;;;;;;;32.10;19.17;;;7.30;99.90;;;;;;5025475;28;20446;-85
2021/11/15 11:57:02;;;;;;;30.77;18.90;;;7.30;99.90;;;;;;5025406;28;20445;-85
2021/11/15 11:59:29;;;;;;;31.60;17.47;;;7.30;99.90;;;;;;5024678;28;20506;-85
2021/11/15 12:02:04;;;;;;;30.33;17.57;;;7.30;99.90;;;;;;5006285;28;20927;-85
2021/11/15 12:04:31;;;;;;;31.67;18.07;;;7.30;99.90;;;;;;5022565;28;20431;-86
2021/11/15 12:06:57;;;;;;;36.73;20.97;;;7.30;99.90;;;;;;5020957;28;20903;-85
2021/11/15 12:09:42;;;;;;;27.30;14.53;;;7.30;99.90;;;;;;5028927;28;20431;-85
2021/11/15 12:12:07;;;;;;;31.67;18.13;;;7.30;99.90;;;;;;5030779;28;20487;-85
2021/11/15 12:14:40;;;;;;;31.13;17.90;;;7.40;99.90;;;;;;5023926;28;20477;-87
2021/11/15 12:17:13;;;;;;;33.73;18.60;;;7.40;99.90;;;;;;5017931;28;20172;-85
2021/11/15 12:19:56;;;;;;;35.73;19.90;;;7.30;99.90;;;;;;5015460;28;20435;-86
2021/11/15 12:22:40;;;;;;;32.97;19.80;;;7.40;99.90;;;;;;5015646;28;20761;-84
2021/11/15 12:25:07;;;;;;;39.40;21.30;;;7.40;99.90;;;;;;5016372;28;20916;-85
2021/11/15 12:27:59;;;;;;;36.00;20.30;;;7.30;99.90;;;;;;5015142;28;20423;-85
2021/11/15 12:30:32;;;;;;;31.80;18.07;;;7.30;99.90;;;;;;5016189;28;20416;-85
2021/11/15 12:33:16;;;;;;;32.77;18.80;;;7.30;99.90;;;;;;5017572;28;20573;-87
2021/11/15 12:35:59;;;;;;;32.87;20.17;;;7.30;99.90;;;;;;5015035;28;20418;-86
2021/11/15 12:38:45;;;;;;;31.90;19.10;;;7.40;99.90;;;;;;5014666;28;20426;-85
2021/11/15 12:41:17;;;;;;;34.37;18.77;;;7.40;99.90;;;;;;5015408;28;20408;-86
2021/11/15 12:44:02;;;;;;;33.23;18.37;;;7.30;99.90;;;;;;5014945;28;20430;-85
2021/11/15 12:47:01;;;;;;;37.17;20.20;;;7.30;99.90;;;;;;5014922;28;20465;-88
2021/11/15 12:49:34;;;;;;;34.40;19.73;;;7.30;99.90;;;;;;5011129;28;20455;-86
2021/11/15 12:52:10;;;;;;;34.50;19.13;;;7.30;99.90;;;;;;5015532;28;20966;-87